Terminal Aerodrome Forecast
Issued by NWS

Home | Current Version | Previous Version | Graphics & Text | Print | Product List | Glossary On
Versions: 1 2 3 4 5 6 7 8 9 10 11 12 13 14 15
787
FTUS43 KTOP 251739
TAFFOE
TAF
KFOE 251739Z 2518/2618 20008KT P6SM SCT150
     FM252300 27009KT P6SM VCTS OVC035CB
     FM260100 31010KT P6SM VCTS OVC040CB
     FM260400 34011KT P6SM VCTS OVC030CB
     FM261000 33015KT P6SM VCSH OVC013
     FM261200 33015G23KT P6SM OVC018=

USA.gov is the U.S. government's official web portal to all federal, state and local government web resources and services.